sensor_id;sensor_type;location;lat;lon;timestamp;temperature;humidity
52943;DHT22;38809;53.300;6.614;2022-10-22T00:00:34;13.30;99.90
52943;DHT22;38809;53.300;6.614;2022-10-22T00:03:00;13.30;99.90
52943;DHT22;38809;53.300;6.614;2022-10-22T00:05:25;13.30;99.90
52943;DHT22;38809;53.300;6.614;2022-10-22T00:07:51;13.30;99.90
52943;DHT22;38809;53.300;6.614;2022-10-22T00:10:17;13.30;99.90
52943;DHT22;38809;53.300;6.614;2022-10-22T00:12:43;13.30;99.90
52943;DHT22;38809;53.300;6.614;2022-10-22T00:15:10;13.30;99.90
52943;DHT22;38809;53.300;6.614;2022-10-22T00:17:35;13.30;99.90
52943;DHT22;38809;53.300;6.614;2022-10-22T00:20:01;13.30;99.90
52943;DHT22;38809;53.300;6.614;2022-10-22T00:22:27;13.30;99.90
52943;DHT22;38809;53.300;6.614;2022-10-22T00:24:53;13.30;99.90
52943;DHT22;38809;53.300;6.614;2022-10-22T00:27:18;13.20;99.90
52943;DHT22;38809;53.300;6.614;2022-10-22T00:29:44;13.20;99.90
52943;DHT22;38809;53.300;6.614;2022-10-22T00:32:10;13.20;99.90
52943;DHT22;38809;53.300;6.614;2022-10-22T00:34:35;13.20;99.90
52943;DHT22;38809;53.300;6.614;2022-10-22T00:37:01;13.20;99.90
52943;DHT22;38809;53.300;6.614;2022-10-22T00:39:27;13.20;99.90
52943;DHT22;38809;53.300;6.614;2022-10-22T00:41:55;13.10;99.90
52943;DHT22;38809;53.300;6.614;2022-10-22T00:47:24;13.10;99.90
52943;DHT22;38809;53.300;6.614;2022-10-22T00:49:53;13.10;99.90
52943;DHT22;38809;53.300;6.614;2022-10-22T00:52:20;13.10;99.90
52943;DHT22;38809;53.300;6.614;2022-10-22T00:54:46;13.10;99.90
52943;DHT22;38809;53.300;6.614;2022-10-22T00:57:11;13.20;99.90
52943;DHT22;38809;53.300;6.614;2022-10-22T00:59:37;13.30;99.90
52943;DHT22;38809;53.300;6.614;2022-10-22T01:02:03;13.20;99.90
52943;DHT22;38809;53.300;6.614;2022-10-22T01:04:29;13.10;99.90
52943;DHT22;38809;53.300;6.614;2022-10-22T01:06:55;13.10;99.90
52943;DHT22;38809;53.300;6.614;2022-10-22T01:12:23;13.10;99.90
52943;DHT22;38809;53.300;6.614;2022-10-22T01:23:33;13.10;99.90
52943;DHT22;38809;53.300;6.614;2022-10-22T01:31:26;13.00;99.90
52943;DHT22;38809;53.300;6.614;2022-10-22T01:33:54;12.90;99.90
52943;DHT22;38809;53.300;6.614;2022-10-22T01:36:20;13.00;99.90
52943;DHT22;38809;53.300;6.614;2022-10-22T01:38:47;12.80;99.90
52943;DHT22;38809;53.300;6.614;2022-10-22T01:41:14;12.90;99.90
52943;DHT22;38809;53.300;6.614;2022-10-22T01:43:40;12.90;99.90
52943;DHT22;38809;53.300;6.614;2022-10-22T01:46:06;12.90;99.90
52943;DHT22;38809;53.300;6.614;2022-10-22T01:48:47;12.90;99.90
52943;DHT22;38809;53.300;6.614;2022-10-22T01:54:30;12.90;99.90
52943;DHT22;38809;53.300;6.614;2022-10-22T02:00:08;12.90;99.90
52943;DHT22;38809;53.300;6.614;2022-10-22T02:03:09;12.90;99.90
52943;DHT22;38809;53.300;6.614;2022-10-22T02:05:48;12.90;99.90
52943;DHT22;38809;53.300;6.614;2022-10-22T02:08:16;12.90;99.90
52943;DHT22;38809;53.300;6.614;2022-10-22T02:10:45;12.80;99.90
52943;DHT22;38809;53.300;6.614;2022-10-22T02:13:19;12.80;99.90
52943;DHT22;38809;53.300;6.614;2022-10-22T02:15:48;12.80;99.90
52943;DHT22;38809;53.300;6.614;2022-10-22T02:18:18;12.80;99.90
52943;DHT22;38809;53.300;6.614;2022-10-22T02:20:45;12.80;99.90
52943;DHT22;38809;53.300;6.614;2022-10-22T02:23:11;12.80;99.90
52943;DHT22;38809;53.300;6.614;2022-10-22T02:25:39;12.70;99.90
52943;DHT22;38809;53.300;6.614;2022-10-22T02:28:20;12.80;99.90
52943;DHT22;38809;53.300;6.614;2022-10-22T02:30:54;12.80;99.90
52943;DHT22;38809;53.300;6.614;2022-10-22T02:33:25;12.70;99.90
52943;DHT22;38809;53.300;6.614;2022-10-22T02:35:53;12.70;99.90
52943;DHT22;38809;53.300;6.614;2022-10-22T02:38:20;12.70;99.90
52943;DHT22;38809;53.300;6.614;2022-10-22T02:40:47;12.70;99.90
52943;DHT22;38809;53.300;6.614;2022-10-22T02:43:13;12.70;99.90
52943;DHT22;38809;53.300;6.614;2022-10-22T02:45:38;12.70;99.90
52943;DHT22;38809;53.300;6.614;2022-10-22T02:48:05;12.70;99.90
52943;DHT22;38809;53.300;6.614;2022-10-22T02:50:30;12.70;99.90
52943;DHT22;38809;53.300;6.614;2022-10-22T02:52:56;12.70;99.90
52943;DHT22;38809;53.300;6.614;2022-10-22T02:55:22;12.80;99.90
52943;DHT22;38809;53.300;6.614;2022-10-22T02:57:47;12.70;99.90
52943;DHT22;38809;53.300;6.614;2022-10-22T03:00:13;12.60;99.90
52943;DHT22;38809;53.300;6.614;2022-10-22T03:02:39;12.60;99.90
52943;DHT22;38809;53.300;6.614;2022-10-22T03:05:05;12.60;99.90
52943;DHT22;38809;53.300;6.614;2022-10-22T03:07:31;12.60;99.90
52943;DHT22;38809;53.300;6.614;2022-10-22T03:09:57;12.60;99.90
52943;DHT22;38809;53.300;6.614;2022-10-22T03:12:23;12.60;99.90
52943;DHT22;38809;53.300;6.614;2022-10-22T03:14:48;12.60;99.90
52943;DHT22;38809;53.300;6.614;2022-10-22T03:17:14;12.60;99.90
52943;DHT22;38809;53.300;6.614;2022-10-22T03:19:40;12.50;99.90
52943;DHT22;38809;53.300;6.614;2022-10-22T03:22:07;12.60;99.90
52943;DHT22;38809;53.300;6.614;2022-10-22T03:24:40;12.60;99.90
52943;DHT22;38809;53.300;6.614;2022-10-22T03:27:07;12.50;99.90
52943;DHT22;38809;53.300;6.614;2022-10-22T03:29:35;12.50;99.90
52943;DHT22;38809;53.300;6.614;2022-10-22T03:32:02;12.50;99.90
52943;DHT22;38809;53.300;6.614;2022-10-22T03:34:27;12.50;99.90
52943;DHT22;38809;53.300;6.614;2022-10-22T03:36:53;12.50;99.90
52943;DHT22;38809;53.300;6.614;2022-10-22T03:39:21;12.50;99.90
52943;DHT22;38809;53.300;6.614;2022-10-22T03:41:48;12.50;99.90
52943;DHT22;38809;53.300;6.614;2022-10-22T03:44:15;12.40;99.90
52943;DHT22;38809;53.300;6.614;2022-10-22T03:46:41;12.40;99.90
52943;DHT22;38809;53.300;6.614;2022-10-22T03:49:07;12.40;99.90
52943;DHT22;38809;53.300;6.614;2022-10-22T03:51:33;12.50;99.90
52943;DHT22;38809;53.300;6.614;2022-10-22T03:53:58;12.40;99.90
52943;DHT22;38809;53.300;6.614;2022-10-22T03:56:24;12.40;99.90
52943;DHT22;38809;53.300;6.614;2022-10-22T03:58:50;12.40;99.90
52943;DHT22;38809;53.300;6.614;2022-10-22T04:01:15;12.30;99.90
52943;DHT22;38809;53.300;6.614;2022-10-22T04:03:41;12.40;99.90
52943;DHT22;38809;53.300;6.614;2022-10-22T04:06:09;12.40;99.90
52943;DHT22;38809;53.300;6.614;2022-10-22T04:08:38;12.40;99.90
52943;DHT22;38809;53.300;6.614;2022-10-22T04:11:04;12.40;99.90
52943;DHT22;38809;53.300;6.614;2022-10-22T04:13:29;12.30;99.90
52943;DHT22;38809;53.300;6.614;2022-10-22T04:15:55;12.30;99.90
52943;DHT22;38809;53.300;6.614;2022-10-22T04:18:22;12.30;99.90
52943;DHT22;38809;53.300;6.614;2022-10-22T04:20:50;12.20;99.90
52943;DHT22;38809;53.300;6.614;2022-10-22T04:23:15;12.20;99.90
52943;DHT22;38809;53.300;6.614;2022-10-22T04:25:41;12.20;99.90
52943;DHT22;38809;53.300;6.614;2022-10-22T04:28:08;12.20;99.90
52943;DHT22;38809;53.300;6.614;2022-10-22T04:30:34;12.20;99.90
52943;DHT22;38809;53.300;6.614;2022-10-22T04:33:00;12.20;99.90
52943;DHT22;38809;53.300;6.614;2022-10-22T04:35:25;12.20;99.90
52943;DHT22;38809;53.300;6.614;2022-10-22T04:37:51;12.10;99.90
52943;DHT22;38809;53.300;6.614;2022-10-22T04:40:17;12.10;99.90
52943;DHT22;38809;53.300;6.614;2022-10-22T04:42:42;12.10;99.90
52943;DHT22;38809;53.300;6.614;2022-10-22T04:45:08;12.10;99.90
52943;DHT22;38809;53.300;6.614;2022-10-22T04:47:34;12.00;99.90
52943;DHT22;38809;53.300;6.614;2022-10-22T04:50:00;12.00;99.90
52943;DHT22;38809;53.300;6.614;2022-10-22T04:52:26;12.00;99.90
52943;DHT22;38809;53.300;6.614;2022-10-22T04:54:51;12.00;99.90
52943;DHT22;38809;53.300;6.614;2022-10-22T04:57:17;12.00;99.90
52943;DHT22;38809;53.300;6.614;2022-10-22T04:59:42;12.00;99.90
52943;DHT22;38809;53.300;6.614;2022-10-22T05:02:08;12.00;99.90
52943;DHT22;38809;53.300;6.614;2022-10-22T05:04:34;12.10;99.90
52943;DHT22;38809;53.300;6.614;2022-10-22T05:06:59;12.10;99.90
52943;DHT22;38809;53.300;6.614;2022-10-22T05:09:25;12.10;99.90
52943;DHT22;38809;53.300;6.614;2022-10-22T05:11:51;12.10;99.90
52943;DHT22;38809;53.300;6.614;2022-10-22T05:14:20;12.10;99.90
52943;DHT22;38809;53.300;6.614;2022-10-22T05:16:46;12.10;99.90
52943;DHT22;38809;53.300;6.614;2022-10-22T05:19:20;12.20;99.90
52943;DHT22;38809;53.300;6.614;2022-10-22T05:21:48;12.10;99.90
52943;DHT22;38809;53.300;6.614;2022-10-22T05:24:14;12.30;99.90
52943;DHT22;38809;53.300;6.614;2022-10-22T05:26:40;12.20;99.90
52943;DHT22;38809;53.300;6.614;2022-10-22T05:29:06;12.20;99.90
52943;DHT22;38809;53.300;6.614;2022-10-22T05:31:31;12.20;99.90
52943;DHT22;38809;53.300;6.614;2022-10-22T05:33:57;12.20;99.90
52943;DHT22;38809;53.300;6.614;2022-10-22T05:36:24;12.20;99.90
52943;DHT22;38809;53.300;6.614;2022-10-22T05:38:50;12.20;99.90
52943;DHT22;38809;53.300;6.614;2022-10-22T05:41:18;12.20;99.90
52943;DHT22;38809;53.300;6.614;2022-10-22T05:43:45;12.20;99.90
52943;DHT22;38809;53.300;6.614;2022-10-22T05:46:13;12.20;99.90
52943;DHT22;38809;53.300;6.614;2022-10-22T05:48:40;12.20;99.90
52943;DHT22;38809;53.300;6.614;2022-10-22T05:51:08;12.20;99.90
52943;DHT22;38809;53.300;6.614;2022-10-22T05:53:35;12.20;99.90
52943;DHT22;38809;53.300;6.614;2022-10-22T05:56:13;12.20;99.90
52943;DHT22;38809;53.300;6.614;2022-10-22T05:58:40;12.20;99.90
52943;DHT22;38809;53.300;6.614;2022-10-22T06:01:10;12.20;99.90
52943;DHT22;38809;53.300;6.614;2022-10-22T06:03:36;12.10;99.90
52943;DHT22;38809;53.300;6.614;2022-10-22T06:06:06;12.20;99.90
52943;DHT22;38809;53.300;6.614;2022-10-22T06:08:36;12.20;99.90
52943;DHT22;38809;53.300;6.614;2022-10-22T06:11:02;12.20;99.90
52943;DHT22;38809;53.300;6.614;2022-10-22T06:13:27;12.10;99.90
52943;DHT22;38809;53.300;6.614;2022-10-22T06:15:53;12.20;99.90
52943;DHT22;38809;53.300;6.614;2022-10-22T06:18:19;12.20;99.90
52943;DHT22;38809;53.300;6.614;2022-10-22T06:20:45;12.20;99.90
52943;DHT22;38809;53.300;6.614;2022-10-22T06:23:12;12.30;99.90
52943;DHT22;38809;53.300;6.614;2022-10-22T06:25:37;12.30;99.90
52943;DHT22;38809;53.300;6.614;2022-10-22T06:28:03;12.40;99.90
52943;DHT22;38809;53.300;6.614;2022-10-22T06:30:29;12.30;99.90
52943;DHT22;38809;53.300;6.614;2022-10-22T06:32:55;12.40;99.90
52943;DHT22;38809;53.300;6.614;2022-10-22T06:35:20;12.40;99.90
52943;DHT22;38809;53.300;6.614;2022-10-22T06:37:46;12.60;99.90
52943;DHT22;38809;53.300;6.614;2022-10-22T06:40:12;12.40;99.90
52943;DHT22;38809;53.300;6.614;2022-10-22T06:42:38;12.50;99.90
52943;DHT22;38809;53.300;6.614;2022-10-22T06:45:04;12.50;99.90
52943;DHT22;38809;53.300;6.614;2022-10-22T06:47:30;12.40;99.90
52943;DHT22;38809;53.300;6.614;2022-10-22T06:49:57;12.50;99.90
52943;DHT22;38809;53.300;6.614;2022-10-22T06:52:23;12.50;99.90
52943;DHT22;38809;53.300;6.614;2022-10-22T06:54:49;12.50;99.90
52943;DHT22;38809;53.300;6.614;2022-10-22T06:57:14;12.50;99.90
52943;DHT22;38809;53.300;6.614;2022-10-22T06:59:40;12.50;99.90
52943;DHT22;38809;53.300;6.614;2022-10-22T07:02:07;12.60;99.90
52943;DHT22;38809;53.300;6.614;2022-10-22T07:04:32;12.70;99.90
52943;DHT22;38809;53.300;6.614;2022-10-22T07:06:58;12.70;99.90
52943;DHT22;38809;53.300;6.614;2022-10-22T07:09:24;12.80;99.90
52943;DHT22;38809;53.300;6.614;2022-10-22T07:11:49;12.80;99.90
52943;DHT22;38809;53.300;6.614;2022-10-22T07:14:15;12.90;99.90
52943;DHT22;38809;53.300;6.614;2022-10-22T07:16:40;13.00;99.90
52943;DHT22;38809;53.300;6.614;2022-10-22T07:19:07;13.00;99.90
52943;DHT22;38809;53.300;6.614;2022-10-22T07:21:33;13.00;99.90
52943;DHT22;38809;53.300;6.614;2022-10-22T07:23:59;13.10;99.90
52943;DHT22;38809;53.300;6.614;2022-10-22T07:26:25;13.20;99.90
52943;DHT22;38809;53.300;6.614;2022-10-22T07:28:53;13.20;99.90
52943;DHT22;38809;53.300;6.614;2022-10-22T07:31:18;13.30;99.90
52943;DHT22;38809;53.300;6.614;2022-10-22T07:33:44;13.20;99.90
52943;DHT22;38809;53.300;6.614;2022-10-22T07:36:13;13.30;99.90
52943;DHT22;38809;53.300;6.614;2022-10-22T07:38:43;13.30;99.90
52943;DHT22;38809;53.300;6.614;2022-10-22T07:41:09;13.30;99.90
52943;DHT22;38809;53.300;6.614;2022-10-22T07:43:35;13.40;99.90
52943;DHT22;38809;53.300;6.614;2022-10-22T07:46:01;13.30;99.90
52943;DHT22;38809;53.300;6.614;2022-10-22T07:48:27;13.40;99.90
52943;DHT22;38809;53.300;6.614;2022-10-22T07:50:53;13.40;99.90
52943;DHT22;38809;53.300;6.614;2022-10-22T07:53:19;13.40;99.90
52943;DHT22;38809;53.300;6.614;2022-10-22T07:55:49;13.40;99.90
52943;DHT22;38809;53.300;6.614;2022-10-22T07:58:16;13.40;99.90
52943;DHT22;38809;53.300;6.614;2022-10-22T08:00:42;13.50;99.90
52943;DHT22;38809;53.300;6.614;2022-10-22T08:03:12;13.50;99.90
52943;DHT22;38809;53.300;6.614;2022-10-22T08:05:38;13.50;99.90
52943;DHT22;38809;53.300;6.614;2022-10-22T08:08:05;13.50;99.90
52943;DHT22;38809;53.300;6.614;2022-10-22T08:10:31;13.50;99.90
52943;DHT22;38809;53.300;6.614;2022-10-22T08:12:58;13.50;99.90
52943;DHT22;38809;53.300;6.614;2022-10-22T08:15:23;13.50;99.90
52943;DHT22;38809;53.300;6.614;2022-10-22T08:17:51;13.50;99.90
52943;DHT22;38809;53.300;6.614;2022-10-22T08:20:16;13.60;99.90
52943;DHT22;38809;53.300;6.614;2022-10-22T08:22:42;13.60;99.90
52943;DHT22;38809;53.300;6.614;2022-10-22T08:25:08;13.60;99.90
52943;DHT22;38809;53.300;6.614;2022-10-22T08:27:34;13.60;99.90
52943;DHT22;38809;53.300;6.614;2022-10-22T08:30:00;13.60;99.90
52943;DHT22;38809;53.300;6.614;2022-10-22T08:32:26;13.70;99.90
52943;DHT22;38809;53.300;6.614;2022-10-22T08:34:51;13.70;99.90
52943;DHT22;38809;53.300;6.614;2022-10-22T08:37:17;13.70;99.90
52943;DHT22;38809;53.300;6.614;2022-10-22T08:39:43;13.70;99.90
52943;DHT22;38809;53.300;6.614;2022-10-22T08:50:54;14.00;99.90
52943;DHT22;38809;53.300;6.614;2022-10-22T08:53:44;14.10;99.90
52943;DHT22;38809;53.300;6.614;2022-10-22T08:56:13;14.30;99.90
52943;DHT22;38809;53.300;6.614;2022-10-22T08:59:09;14.40;99.90
52943;DHT22;38809;53.300;6.614;2022-10-22T09:01:48;14.50;99.90
52943;DHT22;38809;53.300;6.614;2022-10-22T09:04:38;14.50;99.90
52943;DHT22;38809;53.300;6.614;2022-10-22T09:07:08;14.70;99.90
52943;DHT22;38809;53.300;6.614;2022-10-22T09:09:41;14.80;99.90
52943;DHT22;38809;53.300;6.614;2022-10-22T09:12:14;14.80;99.90
52943;DHT22;38809;53.300;6.614;2022-10-22T09:14:40;14.80;99.90
52943;DHT22;38809;53.300;6.614;2022-10-22T09:17:28;14.90;99.90
52943;DHT22;38809;53.300;6.614;2022-10-22T09:20:08;14.90;99.90
52943;DHT22;38809;53.300;6.614;2022-10-22T09:25:28;15.10;99.90
52943;DHT22;38809;53.300;6.614;2022-10-22T09:27:54;15.20;99.90
52943;DHT22;38809;53.300;6.614;2022-10-22T09:30:33;15.40;99.90
52943;DHT22;38809;53.300;6.614;2022-10-22T09:35:55;15.70;99.90
52943;DHT22;38809;53.300;6.614;2022-10-22T09:38:37;15.80;99.90
52943;DHT22;38809;53.300;6.614;2022-10-22T09:41:04;15.70;99.90
52943;DHT22;38809;53.300;6.614;2022-10-22T09:43:31;15.80;99.90
52943;DHT22;38809;53.300;6.614;2022-10-22T09:46:00;15.70;99.90
52943;DHT22;38809;53.300;6.614;2022-10-22T09:48:33;15.70;99.90
52943;DHT22;38809;53.300;6.614;2022-10-22T09:51:19;15.70;99.90
52943;DHT22;38809;53.300;6.614;2022-10-22T09:53:57;15.60;99.90
52943;DHT22;38809;53.300;6.614;2022-10-22T09:58:51;15.60;99.90
52943;DHT22;38809;53.300;6.614;2022-10-22T10:01:29;15.60;99.90
52943;DHT22;38809;53.300;6.614;2022-10-22T10:04:25;15.60;99.90
52943;DHT22;38809;53.300;6.614;2022-10-22T10:06:54;15.60;99.90
52943;DHT22;38809;53.300;6.614;2022-10-22T10:09:23;15.80;99.90
52943;DHT22;38809;53.300;6.614;2022-10-22T10:17:47;15.90;99.90
52943;DHT22;38809;53.300;6.614;2022-10-22T10:23:26;15.80;99.90
52943;DHT22;38809;53.300;6.614;2022-10-22T10:39:17;15.70;99.90
52943;DHT22;38809;53.300;6.614;2022-10-22T10:50:26;15.70;99.90
52943;DHT22;38809;53.300;6.614;2022-10-22T10:53:06;15.70;99.90
52943;DHT22;38809;53.300;6.614;2022-10-22T10:56:21;15.70;99.90
52943;DHT22;38809;53.300;6.614;2022-10-22T10:58:43;15.70;99.90
52943;DHT22;38809;53.300;6.614;2022-10-22T11:01:35;15.70;99.90
52943;DHT22;38809;53.300;6.614;2022-10-22T11:07:01;15.70;99.90
52943;DHT22;38809;53.300;6.614;2022-10-22T11:09:35;15.70;99.90
52943;DHT22;38809;53.300;6.614;2022-10-22T11:12:07;15.70;99.90
52943;DHT22;38809;53.300;6.614;2022-10-22T11:14:39;15.80;99.90
52943;DHT22;38809;53.300;6.614;2022-10-22T11:17:16;15.80;99.90
52943;DHT22;38809;53.300;6.614;2022-10-22T11:20:23;15.80;99.90
52943;DHT22;38809;53.300;6.614;2022-10-22T11:23:00;15.90;99.90
52943;DHT22;38809;53.300;6.614;2022-10-22T11:25:31;15.90;99.90
52943;DHT22;38809;53.300;6.614;2022-10-22T11:30:34;16.10;99.90
52943;DHT22;38809;53.300;6.614;2022-10-22T11:33:05;16.00;99.90
52943;DHT22;38809;53.300;6.614;2022-10-22T11:35:39;16.10;99.90
52943;DHT22;38809;53.300;6.614;2022-10-22T11:38:06;16.20;99.90
52943;DHT22;38809;53.300;6.614;2022-10-22T11:40:36;16.30;99.90
52943;DHT22;38809;53.300;6.614;2022-10-22T11:43:05;16.50;99.90
52943;DHT22;38809;53.300;6.614;2022-10-22T11:45:39;16.60;99.90
52943;DHT22;38809;53.300;6.614;2022-10-22T11:53:31;16.40;99.90
52943;DHT22;38809;53.300;6.614;2022-10-22T12:06:21;16.10;99.90
52943;DHT22;38809;53.300;6.614;2022-10-22T12:14:23;15.90;99.90
52943;DHT22;38809;53.300;6.614;2022-10-22T12:17:10;15.90;99.90
52943;DHT22;38809;53.300;6.614;2022-10-22T12:19:42;15.80;99.90
52943;DHT22;38809;53.300;6.614;2022-10-22T12:22:24;15.80;99.90
52943;DHT22;38809;53.300;6.614;2022-10-22T12:24:53;15.90;99.90
52943;DHT22;38809;53.300;6.614;2022-10-22T12:27:37;15.90;99.90
52943;DHT22;38809;53.300;6.614;2022-10-22T12:30:24;15.90;99.90
52943;DHT22;38809;53.300;6.614;2022-10-22T12:32:58;15.90;99.90
52943;DHT22;38809;53.300;6.614;2022-10-22T12:35:49;15.80;99.90
52943;DHT22;38809;53.300;6.614;2022-10-22T12:38:22;15.80;99.90
52943;DHT22;38809;53.300;6.614;2022-10-22T12:40:49;15.80;99.90
52943;DHT22;38809;53.300;6.614;2022-10-22T12:43:18;15.70;99.90
52943;DHT22;38809;53.300;6.614;2022-10-22T12:45:46;15.70;99.90
52943;DHT22;38809;53.300;6.614;2022-10-22T12:48:18;15.70;99.90
52943;DHT22;38809;53.300;6.614;2022-10-22T12:50:49;15.70;99.90
52943;DHT22;38809;53.300;6.614;2022-10-22T12:55:51;15.70;99.90
52943;DHT22;38809;53.300;6.614;2022-10-22T12:58:20;15.70;99.90
52943;DHT22;38809;53.300;6.614;2022-10-22T13:00:47;15.70;99.90
52943;DHT22;38809;53.300;6.614;2022-10-22T13:03:49;15.70;99.90
52943;DHT22;38809;53.300;6.614;2022-10-22T13:08:57;16.20;99.90
52943;DHT22;38809;53.300;6.614;2022-10-22T13:11:38;16.10;99.90
52943;DHT22;38809;53.300;6.614;2022-10-22T13:14:14;16.10;99.90
52943;DHT22;38809;53.300;6.614;2022-10-22T13:16:42;16.10;99.90
52943;DHT22;38809;53.300;6.614;2022-10-22T13:22:51;16.20;99.90
52943;DHT22;38809;53.300;6.614;2022-10-22T13:28:12;16.20;99.90
52943;DHT22;38809;53.300;6.614;2022-10-22T13:30:34;16.30;99.90
52943;DHT22;38809;53.300;6.614;2022-10-22T13:34:01;16.30;99.90
52943;DHT22;38809;53.300;6.614;2022-10-22T13:36:18;16.30;99.90
52943;DHT22;38809;53.300;6.614;2022-10-22T13:38:44;16.30;99.90
52943;DHT22;38809;53.300;6.614;2022-10-22T13:43:47;16.30;99.90
52943;DHT22;38809;53.300;6.614;2022-10-22T13:46:13;16.30;99.90
52943;DHT22;38809;53.300;6.614;2022-10-22T13:48:39;16.30;99.90
52943;DHT22;38809;53.300;6.614;2022-10-22T13:51:13;16.40;99.90
52943;DHT22;38809;53.300;6.614;2022-10-22T13:53:40;16.40;99.90
52943;DHT22;38809;53.300;6.614;2022-10-22T13:56:06;16.40;99.90
52943;DHT22;38809;53.300;6.614;2022-10-22T13:58:31;16.40;99.90
52943;DHT22;38809;53.300;6.614;2022-10-22T14:00:58;16.40;99.90
52943;DHT22;38809;53.300;6.614;2022-10-22T14:03:35;16.40;99.90
52943;DHT22;38809;53.300;6.614;2022-10-22T14:06:02;16.30;99.90
52943;DHT22;38809;53.300;6.614;2022-10-22T14:08:28;16.30;99.90
52943;DHT22;38809;53.300;6.614;2022-10-22T14:10:54;16.40;99.90
52943;DHT22;38809;53.300;6.614;2022-10-22T14:13:20;16.50;99.90
52943;DHT22;38809;53.300;6.614;2022-10-22T14:15:48;16.50;99.90
52943;DHT22;38809;53.300;6.614;2022-10-22T14:18:17;16.50;99.90
52943;DHT22;38809;53.300;6.614;2022-10-22T14:20:53;16.50;99.90
52943;DHT22;38809;53.300;6.614;2022-10-22T14:23:21;16.40;99.90
52943;DHT22;38809;53.300;6.614;2022-10-22T14:25:47;16.50;99.90
52943;DHT22;38809;53.300;6.614;2022-10-22T14:28:15;16.40;99.90
52943;DHT22;38809;53.300;6.614;2022-10-22T14:30:42;16.50;99.90
52943;DHT22;38809;53.300;6.614;2022-10-22T14:33:12;16.50;99.90
52943;DHT22;38809;53.300;6.614;2022-10-22T14:35:39;16.50;99.90
52943;DHT22;38809;53.300;6.614;2022-10-22T14:38:05;16.50;99.90
52943;DHT22;38809;53.300;6.614;2022-10-22T14:40:30;16.50;99.90
52943;DHT22;38809;53.300;6.614;2022-10-22T14:42:56;16.50;99.90
52943;DHT22;38809;53.300;6.614;2022-10-22T14:45:24;16.50;99.90
52943;DHT22;38809;53.300;6.614;2022-10-22T14:47:51;16.50;99.90
52943;DHT22;38809;53.300;6.614;2022-10-22T14:50:19;16.50;99.90
52943;DHT22;38809;53.300;6.614;2022-10-22T14:52:45;16.40;99.90
52943;DHT22;38809;53.300;6.614;2022-10-22T14:55:13;16.30;99.90
52943;DHT22;38809;53.300;6.614;2022-10-22T14:57:40;16.30;99.90
52943;DHT22;38809;53.300;6.614;2022-10-22T15:00:08;16.30;99.90
52943;DHT22;38809;53.300;6.614;2022-10-22T15:02:34;16.30;99.90
52943;DHT22;38809;53.300;6.614;2022-10-22T15:05:00;16.20;99.90
52943;DHT22;38809;53.300;6.614;2022-10-22T15:07:26;16.20;99.90
52943;DHT22;38809;53.300;6.614;2022-10-22T15:09:52;16.20;99.90
52943;DHT22;38809;53.300;6.614;2022-10-22T15:12:18;16.20;99.90
52943;DHT22;38809;53.300;6.614;2022-10-22T15:14:45;16.20;99.90
52943;DHT22;38809;53.300;6.614;2022-10-22T15:17:11;16.10;99.90
52943;DHT22;38809;53.300;6.614;2022-10-22T15:19:37;16.00;99.90
52943;DHT22;38809;53.300;6.614;2022-10-22T15:22:03;15.90;99.90
52943;DHT22;38809;53.300;6.614;2022-10-22T15:24:30;15.90;99.90
52943;DHT22;38809;53.300;6.614;2022-10-22T15:26:56;15.80;99.90
52943;DHT22;38809;53.300;6.614;2022-10-22T15:29:22;15.70;99.90
52943;DHT22;38809;53.300;6.614;2022-10-22T15:31:48;15.60;99.90
52943;DHT22;38809;53.300;6.614;2022-10-22T15:34:23;15.60;99.90
52943;DHT22;38809;53.300;6.614;2022-10-22T15:36:49;15.50;99.90
52943;DHT22;38809;53.300;6.614;2022-10-22T15:39:15;15.40;99.90
52943;DHT22;38809;53.300;6.614;2022-10-22T15:41:41;15.40;99.90
52943;DHT22;38809;53.300;6.614;2022-10-22T15:44:07;15.30;99.90
52943;DHT22;38809;53.300;6.614;2022-10-22T15:46:38;15.30;99.90
52943;DHT22;38809;53.300;6.614;2022-10-22T15:49:04;15.30;99.90
52943;DHT22;38809;53.300;6.614;2022-10-22T15:51:30;15.30;99.90
52943;DHT22;38809;53.300;6.614;2022-10-22T15:53:58;15.30;99.90
52943;DHT22;38809;53.300;6.614;2022-10-22T15:56:27;15.20;99.90
52943;DHT22;38809;53.300;6.614;2022-10-22T15:58:55;15.20;99.90
52943;DHT22;38809;53.300;6.614;2022-10-22T16:01:22;15.20;99.90
52943;DHT22;38809;53.300;6.614;2022-10-22T16:03:50;15.20;99.90
52943;DHT22;38809;53.300;6.614;2022-10-22T16:06:26;15.10;99.90
52943;DHT22;38809;53.300;6.614;2022-10-22T16:08:52;15.10;99.90
52943;DHT22;38809;53.300;6.614;2022-10-22T16:11:20;15.00;99.90
52943;DHT22;38809;53.300;6.614;2022-10-22T16:13:46;14.90;99.90
52943;DHT22;38809;53.300;6.614;2022-10-22T16:16:11;14.90;99.90
52943;DHT22;38809;53.300;6.614;2022-10-22T16:18:37;14.80;99.90
52943;DHT22;38809;53.300;6.614;2022-10-22T16:21:03;14.70;99.90
52943;DHT22;38809;53.300;6.614;2022-10-22T16:23:29;14.70;99.90
52943;DHT22;38809;53.300;6.614;2022-10-22T16:25:55;14.60;99.90
52943;DHT22;38809;53.300;6.614;2022-10-22T16:28:20;14.50;99.90
52943;DHT22;38809;53.300;6.614;2022-10-22T16:30:46;14.40;99.90
52943;DHT22;38809;53.300;6.614;2022-10-22T16:33:11;14.50;99.90
52943;DHT22;38809;53.300;6.614;2022-10-22T16:35:41;14.40;99.90
52943;DHT22;38809;53.300;6.614;2022-10-22T16:38:07;14.30;99.90
52943;DHT22;38809;53.300;6.614;2022-10-22T16:40:34;14.30;99.90
52943;DHT22;38809;53.300;6.614;2022-10-22T16:43:00;14.30;99.90
52943;DHT22;38809;53.300;6.614;2022-10-22T16:45:26;14.20;99.90
52943;DHT22;38809;53.300;6.614;2022-10-22T16:47:51;14.20;99.90
52943;DHT22;38809;53.300;6.614;2022-10-22T16:50:17;14.20;99.90
52943;DHT22;38809;53.300;6.614;2022-10-22T16:52:42;14.20;99.90
52943;DHT22;38809;53.300;6.614;2022-10-22T16:55:08;14.10;99.90
52943;DHT22;38809;53.300;6.614;2022-10-22T16:57:34;14.10;99.90
52943;DHT22;38809;53.300;6.614;2022-10-22T17:00:01;14.10;99.90
52943;DHT22;38809;53.300;6.614;2022-10-22T17:02:27;14.10;99.90
52943;DHT22;38809;53.300;6.614;2022-10-22T17:04:52;14.10;99.90
52943;DHT22;38809;53.300;6.614;2022-10-22T17:07:18;14.10;99.90
52943;DHT22;38809;53.300;6.614;2022-10-22T17:09:43;14.00;99.90
52943;DHT22;38809;53.300;6.614;2022-10-22T17:12:09;14.00;99.90
52943;DHT22;38809;53.300;6.614;2022-10-22T17:14:35;14.00;99.90
52943;DHT22;38809;53.300;6.614;2022-10-22T17:17:00;13.90;99.90
52943;DHT22;38809;53.300;6.614;2022-10-22T17:19:26;13.90;99.90
52943;DHT22;38809;53.300;6.614;2022-10-22T17:21:52;14.00;99.90
52943;DHT22;38809;53.300;6.614;2022-10-22T17:24:18;13.90;99.90
52943;DHT22;38809;53.300;6.614;2022-10-22T17:26:45;13.90;99.90
52943;DHT22;38809;53.300;6.614;2022-10-22T17:29:11;13.90;99.90
52943;DHT22;38809;53.300;6.614;2022-10-22T17:31:37;13.80;99.90
52943;DHT22;38809;53.300;6.614;2022-10-22T17:34:05;13.80;99.90